Time;durP1;ratioP1;P1;durP2;ratioP2;P2;SDS_P1;SDS_P2;PMS_P1;PMS_P2;Temp;Humidity;BMP_temperature;BMP_pressure;BME280_temperature;BME280_humidity;BME280_pressure;Samples;Min_cycle;Max_cycle;Signal;HPM_P1;HPM_P2
2021/07/09 00:01:30;;;;;;;1.90;0.88;;;;;;;;;;5036643;28;20040;-68
2021/07/09 00:03:56;;;;;;;1.08;0.75;;;;;;;;;;5035368;28;20026;-68
2021/07/09 00:06:22;;;;;;;1.55;0.95;;;;;;;;;;5040565;28;20028;-68
2021/07/09 00:08:47;;;;;;;2.45;1.30;;;;;;;;;;5044751;28;20031;-68
2021/07/09 00:11:12;;;;;;;2.13;0.90;;;;;;;;;;5031373;28;20487;-68
2021/07/09 00:13:37;;;;;;;2.30;1.20;;;;;;;;;;5042840;28;20059;-68
2021/07/09 00:16:03;;;;;;;4.40;1.10;;;;;;;;;;5032253;28;20114;-68
2021/07/09 00:18:28;;;;;;;3.38;1.00;;;;;;;;;;5029912;28;20136;-68
2021/07/09 00:20:53;;;;;;;1.20;0.90;;;;;;;;;;5031035;28;20465;-67
2021/07/09 00:23:19;;;;;;;1.48;1.17;;;;;;;;;;5029937;28;20048;-68
2021/07/09 00:25:44;;;;;;;1.58;0.82;;;;;;;;;;5031539;28;20907;-68
2021/07/09 00:28:09;;;;;;;3.83;0.90;;;;;;;;;;5032607;28;20021;-68
2021/07/09 00:30:35;;;;;;;4.20;1.23;;;;;;;;;;5028800;28;20730;-68
2021/07/09 00:33:00;;;;;;;1.10;0.85;;;;;;;;;;5028782;28;20119;-67
2021/07/09 00:35:25;;;;;;;2.07;1.10;;;;;;;;;;5030218;28;20120;-69
2021/07/09 00:37:50;;;;;;;1.50;1.10;;;;;;;;;;5035842;28;20810;-67
2021/07/09 00:40:16;;;;;;;1.77;1.02;;;;;;;;;;5030177;28;20093;-67
2021/07/09 00:42:42;;;;;;;2.17;1.00;;;;;;;;;;5040164;28;20049;-68
2021/07/09 00:45:08;;;;;;;2.38;0.90;;;;;;;;;;5028770;28;20049;-67
2021/07/09 00:47:33;;;;;;;2.60;0.90;;;;;;;;;;5031514;28;20124;-68
2021/07/09 00:49:59;;;;;;;1.35;0.90;;;;;;;;;;5032891;28;20104;-67
2021/07/09 00:52:24;;;;;;;2.13;1.00;;;;;;;;;;5033643;28;20064;-67
2021/07/09 00:54:49;;;;;;;3.85;0.90;;;;;;;;;;5037425;28;20067;-68
2021/07/09 00:57:14;;;;;;;1.23;0.90;;;;;;;;;;5037377;28;20136;-68
2021/07/09 00:59:40;;;;;;;2.50;1.35;;;;;;;;;;5030615;28;20017;-68
2021/07/09 01:02:05;;;;;;;1.10;0.88;;;;;;;;;;5029069;28;20027;-68
2021/07/09 01:04:31;;;;;;;1.90;0.80;;;;;;;;;;5030607;28;20022;-69
2021/07/09 01:06:56;;;;;;;2.72;1.20;;;;;;;;;;5028026;28;20084;-68
2021/07/09 01:09:22;;;;;;;3.80;1.15;;;;;;;;;;5031661;28;20112;-69
2021/07/09 01:11:50;;;;;;;2.00;0.98;;;;;;;;;;5028571;28;20018;-68
2021/07/09 01:14:19;;;;;;;1.95;0.98;;;;;;;;;;5029849;28;20034;-68
2021/07/09 01:16:45;;;;;;;3.88;1.33;;;;;;;;;;5027307;28;20037;-68
2021/07/09 01:19:12;;;;;;;1.45;1.00;;;;;;;;;;5029387;28;20079;-67
2021/07/09 01:21:39;;;;;;;1.85;0.75;;;;;;;;;;5025520;28;20071;-68
2021/07/09 01:24:05;;;;;;;3.08;1.00;;;;;;;;;;5029796;28;20063;-67
2021/07/09 01:26:30;;;;;;;1.48;0.90;;;;;;;;;;5035982;28;20069;-68
2021/07/09 01:28:55;;;;;;;1.15;0.95;;;;;;;;;;5028219;28;20045;-68
2021/07/09 01:31:20;;;;;;;2.33;1.02;;;;;;;;;;5034673;28;20381;-67
2021/07/09 01:33:45;;;;;;;1.42;0.95;;;;;;;;;;5027813;28;20025;-68
2021/07/09 01:36:11;;;;;;;0.88;0.85;;;;;;;;;;5028195;28;20064;-67
2021/07/09 01:38:36;;;;;;;1.10;0.90;;;;;;;;;;5029652;28;20376;-68
2021/07/09 01:41:01;;;;;;;1.70;0.98;;;;;;;;;;5032057;28;20404;-68
2021/07/09 01:43:27;;;;;;;2.78;1.00;;;;;;;;;;5030292;28;20041;-68
2021/07/09 01:45:52;;;;;;;1.17;0.80;;;;;;;;;;5036262;28;20079;-68
2021/07/09 01:48:18;;;;;;;1.90;0.80;;;;;;;;;;5026603;28;20630;-67
2021/07/09 01:50:43;;;;;;;1.25;0.90;;;;;;;;;;5028019;28;20155;-68
2021/07/09 01:53:09;;;;;;;1.15;0.77;;;;;;;;;;5031834;28;20033;-68
2021/07/09 01:55:34;;;;;;;1.70;0.73;;;;;;;;;;5041187;28;20107;-68
2021/07/09 01:57:59;;;;;;;0.80;0.75;;;;;;;;;;5041104;28;20624;-67
2021/07/09 02:00:25;;;;;;;0.82;0.80;;;;;;;;;;5026443;28;20473;-68
2021/07/09 02:02:50;;;;;;;0.98;0.80;;;;;;;;;;5033239;28;20029;-67
2021/07/09 02:05:17;;;;;;;0.80;0.80;;;;;;;;;;5029897;28;20028;-67
2021/07/09 02:07:43;;;;;;;0.80;0.70;;;;;;;;;;5043250;28;20068;-67
2021/07/09 02:10:09;;;;;;;0.95;0.88;;;;;;;;;;5028293;28;20025;-68
2021/07/09 02:12:35;;;;;;;3.55;0.98;;;;;;;;;;5031160;28;20022;-68
2021/07/09 02:15:01;;;;;;;2.45;0.80;;;;;;;;;;5026270;28;20028;-66
2021/07/09 02:17:26;;;;;;;1.02;0.70;;;;;;;;;;5028930;28;20234;-68
2021/07/09 02:19:51;;;;;;;1.10;0.85;;;;;;;;;;5033558;28;20436;-67
2021/07/09 02:22:17;;;;;;;2.15;1.00;;;;;;;;;;5028553;28;20025;-68
2021/07/09 02:24:44;;;;;;;1.20;0.68;;;;;;;;;;5031754;28;20389;-68
2021/07/09 02:27:09;;;;;;;0.60;0.60;;;;;;;;;;5027410;28;20035;-67
2021/07/09 02:29:35;;;;;;;1.00;0.50;;;;;;;;;;5031890;28;20021;-67
2021/07/09 02:32:01;;;;;;;0.80;0.50;;;;;;;;;;5034681;28;20029;-68
2021/07/09 02:34:27;;;;;;;0.40;0.40;;;;;;;;;;5026689;28;20550;-67
2021/07/09 02:36:52;;;;;;;1.00;0.55;;;;;;;;;;5035327;28;20124;-67
2021/07/09 02:39:17;;;;;;;1.65;0.32;;;;;;;;;;5036922;28;20041;-67
2021/07/09 02:41:43;;;;;;;0.60;0.40;;;;;;;;;;5026782;28;20046;-68
2021/07/09 02:44:08;;;;;;;0.50;0.30;;;;;;;;;;5027481;28;20029;-68
2021/07/09 02:46:33;;;;;;;1.45;0.30;;;;;;;;;;5027456;28;20021;-67
2021/07/09 02:48:59;;;;;;;0.20;0.20;;;;;;;;;;5028563;28;20029;-67
2021/07/09 02:51:24;;;;;;;0.30;0.30;;;;;;;;;;5045152;28;20071;-67
2021/07/09 02:53:49;;;;;;;4.47;0.20;;;;;;;;;;5030128;28;20272;-67
2021/07/09 02:56:14;;;;;;;0.40;0.40;;;;;;;;;;5022438;28;20102;-68
2021/07/09 02:58:39;;;;;;;0.30;0.30;;;;;;;;;;5027469;28;20268;-68
2021/07/09 03:01:04;;;;;;;0.30;0.20;;;;;;;;;;5028248;28;20025;-66
2021/07/09 03:03:30;;;;;;;1.30;0.30;;;;;;;;;;5040358;28;20024;-66
2021/07/09 03:05:55;;;;;;;0.52;0.40;;;;;;;;;;5029240;28;20021;-67
2021/07/09 03:08:20;;;;;;;0.20;0.20;;;;;;;;;;5032787;28;20025;-67
2021/07/09 03:10:45;;;;;;;1.90;0.30;;;;;;;;;;5030531;28;20480;-66
2021/07/09 03:13:10;;;;;;;0.47;0.30;;;;;;;;;;5030067;28;20315;-67
2021/07/09 03:15:36;;;;;;;0.30;0.30;;;;;;;;;;5029078;28;20124;-67
2021/07/09 03:18:01;;;;;;;0.20;0.20;;;;;;;;;;5047909;28;20035;-67
2021/07/09 03:20:26;;;;;;;0.20;0.20;;;;;;;;;;5033169;28;20053;-67
2021/07/09 03:22:51;;;;;;;0.30;0.20;;;;;;;;;;5038957;28;20037;-67
2021/07/09 03:25:16;;;;;;;0.40;0.30;;;;;;;;;;5042619;28;20029;-66
2021/07/09 03:27:42;;;;;;;0.10;0.10;;;;;;;;;;5034014;28;20024;-67
2021/07/09 03:30:08;;;;;;;0.40;0.20;;;;;;;;;;5031711;28;20024;-67
2021/07/09 03:32:33;;;;;;;0.25;0.20;;;;;;;;;;5035316;28;20284;-66
2021/07/09 03:34:58;;;;;;;0.45;0.20;;;;;;;;;;5031298;28;20017;-66
2021/07/09 03:37:23;;;;;;;0.22;0.20;;;;;;;;;;5035377;28;20044;-66
2021/07/09 03:39:48;;;;;;;0.57;0.30;;;;;;;;;;5034703;28;20045;-66
2021/07/09 03:42:13;;;;;;;0.15;0.15;;;;;;;;;;5029583;28;20307;-66
2021/07/09 03:44:39;;;;;;;0.50;0.38;;;;;;;;;;5037689;28;20032;-67
2021/07/09 03:47:04;;;;;;;0.55;0.30;;;;;;;;;;5030730;28;20057;-66
2021/07/09 03:49:29;;;;;;;0.28;0.28;;;;;;;;;;5034352;28;20021;-67
2021/07/09 03:51:54;;;;;;;0.43;0.30;;;;;;;;;;5038294;28;20029;-66
2021/07/09 03:54:19;;;;;;;1.02;0.40;;;;;;;;;;5030449;28;20128;-68
2021/07/09 03:56:44;;;;;;;0.50;0.40;;;;;;;;;;5032824;28;20671;-67
2021/07/09 03:59:10;;;;;;;0.60;0.45;;;;;;;;;;5029744;28;20290;-68
2021/07/09 04:01:35;;;;;;;0.20;0.20;;;;;;;;;;5039950;28;20380;-67
2021/07/09 04:04:00;;;;;;;0.65;0.30;;;;;;;;;;5035106;28;20026;-66
2021/07/09 04:06:25;;;;;;;0.55;0.40;;;;;;;;;;5026111;28;20025;-67
2021/07/09 04:08:50;;;;;;;0.40;0.40;;;;;;;;;;5046070;28;20420;-67
2021/07/09 04:11:15;;;;;;;0.50;0.50;;;;;;;;;;5044704;28;20350;-67
2021/07/09 04:13:41;;;;;;;1.08;0.35;;;;;;;;;;5030280;28;20018;-66
2021/07/09 04:16:06;;;;;;;1.48;0.50;;;;;;;;;;5043263;28;20357;-66
2021/07/09 04:18:31;;;;;;;0.83;0.53;;;;;;;;;;5032566;28;20069;-67
2021/07/09 04:20:57;;;;;;;0.85;0.40;;;;;;;;;;5044764;28;20777;-66
2021/07/09 04:23:22;;;;;;;0.70;0.50;;;;;;;;;;5037798;28;20532;-67
2021/07/09 04:25:48;;;;;;;1.08;0.65;;;;;;;;;;5038051;28;20029;-63
2021/07/09 04:28:13;;;;;;;1.92;0.63;;;;;;;;;;5030813;28;20028;-63
2021/07/09 04:30:38;;;;;;;1.35;0.50;;;;;;;;;;5040937;28;20021;-63
2021/07/09 04:33:03;;;;;;;0.80;0.60;;;;;;;;;;5028911;28;20030;-63
2021/07/09 04:35:28;;;;;;;0.90;0.70;;;;;;;;;;5020911;28;20795;-63
2021/07/09 04:37:53;;;;;;;1.15;0.68;;;;;;;;;;5037207;28;20064;-63
2021/07/09 04:40:19;;;;;;;1.20;0.70;;;;;;;;;;5029986;28;20143;-64
2021/07/09 04:42:44;;;;;;;1.00;0.60;;;;;;;;;;5027762;28;20308;-64
2021/07/09 04:45:09;;;;;;;1.50;0.90;;;;;;;;;;5043587;28;20032;-63
2021/07/09 04:47:35;;;;;;;0.80;0.60;;;;;;;;;;5039323;28;20025;-63
2021/07/09 04:50:00;;;;;;;1.52;0.88;;;;;;;;;;5030289;28;20018;-63
2021/07/09 04:52:25;;;;;;;1.00;0.90;;;;;;;;;;5035846;28;20033;-64
2021/07/09 04:54:50;;;;;;;1.73;0.80;;;;;;;;;;5030150;28;20017;-63
2021/07/09 04:57:15;;;;;;;1.10;0.82;;;;;;;;;;5036266;28;20040;-63
2021/07/09 04:59:41;;;;;;;2.25;1.00;;;;;;;;;;5026286;28;20014;-63
2021/07/09 05:02:06;;;;;;;3.38;0.90;;;;;;;;;;5027947;28;20033;-62
2021/07/09 05:04:31;;;;;;;2.90;1.23;;;;;;;;;;5027738;28;20436;-63
2021/07/09 05:06:58;;;;;;;2.78;1.25;;;;;;;;;;5033011;28;20025;-64
2021/07/09 05:09:23;;;;;;;2.60;1.30;;;;;;;;;;5023637;28;20048;-63
2021/07/09 05:11:49;;;;;;;0.90;0.90;;;;;;;;;;5029634;28;20472;-63
2021/07/09 05:14:14;;;;;;;2.78;1.48;;;;;;;;;;5018401;28;20064;-64
2021/07/09 05:16:39;;;;;;;1.63;1.20;;;;;;;;;;5018613;28;20025;-63
2021/07/09 05:19:04;;;;;;;1.33;1.20;;;;;;;;;;5021225;28;20021;-63
2021/07/09 05:21:30;;;;;;;2.55;1.20;;;;;;;;;;5027518;28;20029;-62
2021/07/09 05:23:56;;;;;;;2.45;1.13;;;;;;;;;;5037967;28;20057;-63
2021/07/09 05:26:21;;;;;;;2.55;1.35;;;;;;;;;;5037855;28;20021;-62
2021/07/09 05:28:47;;;;;;;1.30;1.10;;;;;;;;;;5030891;28;20030;-63
2021/07/09 05:31:12;;;;;;;1.95;1.13;;;;;;;;;;5029889;28;20017;-63
2021/07/09 05:33:37;;;;;;;1.30;1.10;;;;;;;;;;5038720;28;20047;-63
2021/07/09 05:36:02;;;;;;;3.03;1.20;;;;;;;;;;5038886;28;20026;-63
2021/07/09 05:38:28;;;;;;;1.27;1.00;;;;;;;;;;5029632;28;20033;-63
2021/07/09 05:40:53;;;;;;;1.08;0.90;;;;;;;;;;5036140;28;20025;-64
2021/07/09 05:43:20;;;;;;;1.10;0.85;;;;;;;;;;5031713;28;20064;-64
2021/07/09 05:45:45;;;;;;;1.63;1.05;;;;;;;;;;5039262;28;20112;-64
2021/07/09 05:48:10;;;;;;;1.42;0.85;;;;;;;;;;5042267;28;20113;-65
2021/07/09 05:50:36;;;;;;;1.05;0.80;;;;;;;;;;5035962;28;20362;-64
2021/07/09 05:53:01;;;;;;;3.13;0.68;;;;;;;;;;5039032;28;20057;-64
2021/07/09 05:55:27;;;;;;;1.40;0.50;;;;;;;;;;5043484;28;20425;-64
2021/07/09 05:57:52;;;;;;;0.70;0.50;;;;;;;;;;5029473;28;20029;-64
2021/07/09 06:00:17;;;;;;;1.20;0.75;;;;;;;;;;5035005;28;20032;-65
2021/07/09 06:02:42;;;;;;;0.60;0.60;;;;;;;;;;5038562;28;20031;-65
2021/07/09 06:05:08;;;;;;;1.13;0.60;;;;;;;;;;5037442;28;20037;-65
2021/07/09 06:07:34;;;;;;;1.25;0.63;;;;;;;;;;5048612;28;20264;-64
2021/07/09 06:09:59;;;;;;;1.00;0.63;;;;;;;;;;5045618;28;20014;-65
2021/07/09 06:12:24;;;;;;;0.82;0.73;;;;;;;;;;5038877;28;20761;-65
2021/07/09 06:14:51;;;;;;;0.67;0.67;;;;;;;;;;5036778;28;20025;-65
2021/07/09 06:17:16;;;;;;;1.17;0.77;;;;;;;;;;5033707;28;20292;-65
2021/07/09 06:19:41;;;;;;;1.10;0.73;;;;;;;;;;5036588;28;20036;-65
2021/07/09 06:22:06;;;;;;;2.13;0.87;;;;;;;;;;5029409;28;20025;-65
2021/07/09 06:24:31;;;;;;;1.60;0.90;;;;;;;;;;5036297;28;20267;-65
2021/07/09 06:26:57;;;;;;;1.58;0.98;;;;;;;;;;5027942;28;20460;-65
2021/07/09 06:29:22;;;;;;;1.38;0.90;;;;;;;;;;5048707;28;20021;-65
2021/07/09 06:31:47;;;;;;;2.40;1.00;;;;;;;;;;5034778;28;20021;-65
2021/07/09 06:34:12;;;;;;;1.77;1.02;;;;;;;;;;5042317;28;20051;-65
2021/07/09 06:36:38;;;;;;;1.67;1.10;;;;;;;;;;5029106;28;20043;-65
2021/07/09 06:39:03;;;;;;;1.83;1.00;;;;;;;;;;5036139;28;20310;-65
2021/07/09 06:41:29;;;;;;;1.48;0.90;;;;;;;;;;5029109;28;20049;-65
2021/07/09 06:43:56;;;;;;;1.42;1.00;;;;;;;;;;5047295;28;20021;-65
2021/07/09 06:46:22;;;;;;;1.98;0.93;;;;;;;;;;5043542;28;20091;-65
2021/07/09 06:48:47;;;;;;;1.85;1.23;;;;;;;;;;5028870;28;20045;-65
2021/07/09 06:51:12;;;;;;;1.75;1.15;;;;;;;;;;5035976;28;20023;-65
2021/07/09 06:53:38;;;;;;;1.43;1.10;;;;;;;;;;5042385;28;20307;-65
2021/07/09 06:56:04;;;;;;;1.50;0.90;;;;;;;;;;5033006;28;20264;-64
2021/07/09 06:58:29;;;;;;;3.95;1.10;;;;;;;;;;5041233;28;20447;-65
2021/07/09 07:00:55;;;;;;;1.83;1.27;;;;;;;;;;5040885;28;20021;-65
2021/07/09 07:03:20;;;;;;;2.75;1.15;;;;;;;;;;5045918;28;20029;-66
2021/07/09 07:05:45;;;;;;;2.33;1.10;;;;;;;;;;5036014;28;20045;-65
2021/07/09 07:08:17;;;;;;;1.77;1.25;;;;;;;;;;5030832;28;20272;-66
2021/07/09 07:10:43;;;;;;;1.70;1.35;;;;;;;;;;5030734;28;20159;-64
2021/07/09 07:13:08;;;;;;;1.80;1.52;;;;;;;;;;5029194;28;20409;-65
2021/07/09 07:15:33;;;;;;;2.45;1.40;;;;;;;;;;5030235;28;20056;-67
2021/07/09 07:17:58;;;;;;;2.67;1.50;;;;;;;;;;5033720;28;20128;-65
2021/07/09 07:20:23;;;;;;;2.58;1.40;;;;;;;;;;5035051;28;20419;-65
2021/07/09 07:22:48;;;;;;;4.07;1.60;;;;;;;;;;5035875;28;20044;-66
2021/07/09 07:25:14;;;;;;;2.03;1.40;;;;;;;;;;5038712;28;20480;-65
2021/07/09 07:27:39;;;;;;;2.05;1.42;;;;;;;;;;5042032;28;20350;-65
2021/07/09 07:30:04;;;;;;;2.30;1.70;;;;;;;;;;5030309;28;20480;-65
2021/07/09 07:32:30;;;;;;;1.98;1.50;;;;;;;;;;5030791;28;20549;-66
2021/07/09 07:34:55;;;;;;;2.80;1.65;;;;;;;;;;5039973;28;20032;-65
2021/07/09 07:37:20;;;;;;;2.35;1.40;;;;;;;;;;5041591;28;20518;-65
2021/07/09 07:39:45;;;;;;;2.38;1.60;;;;;;;;;;5042933;28;20057;-66
2021/07/09 07:42:10;;;;;;;2.22;1.50;;;;;;;;;;5028218;28;20156;-65
2021/07/09 07:44:36;;;;;;;1.73;1.60;;;;;;;;;;5032455;28;20051;-65
2021/07/09 07:47:01;;;;;;;2.25;1.60;;;;;;;;;;5030461;28;20322;-65
2021/07/09 07:49:26;;;;;;;2.05;1.38;;;;;;;;;;5032485;28;20075;-65
2021/07/09 07:51:51;;;;;;;4.22;1.70;;;;;;;;;;5040881;28;20021;-65
2021/07/09 07:54:17;;;;;;;2.40;1.73;;;;;;;;;;5035734;28;20017;-65
2021/07/09 07:56:42;;;;;;;3.58;1.70;;;;;;;;;;5045666;28;20029;-65
2021/07/09 07:59:07;;;;;;;3.80;1.80;;;;;;;;;;5038148;28;20372;-66
2021/07/09 08:01:32;;;;;;;4.25;1.70;;;;;;;;;;5051187;28;20090;-66
2021/07/09 08:03:58;;;;;;;2.37;1.63;;;;;;;;;;5050382;28;20020;-65
2021/07/09 08:06:23;;;;;;;2.60;1.60;;;;;;;;;;5031627;28;20345;-65
2021/07/09 08:08:48;;;;;;;2.80;1.50;;;;;;;;;;5037846;28;20136;-66
2021/07/09 08:11:14;;;;;;;2.63;1.48;;;;;;;;;;5031944;28;20372;-65
2021/07/09 08:13:39;;;;;;;3.33;1.70;;;;;;;;;;5038251;28;20051;-63
2021/07/09 08:16:05;;;;;;;3.17;1.90;;;;;;;;;;5040866;28;20028;-65
2021/07/09 08:18:30;;;;;;;2.80;2.00;;;;;;;;;;5050929;28;20021;-65
2021/07/09 08:20:55;;;;;;;3.03;1.58;;;;;;;;;;5050864;28;20032;-66
2021/07/09 08:23:20;;;;;;;2.63;1.85;;;;;;;;;;5051085;28;20031;-65
2021/07/09 08:25:45;;;;;;;2.72;1.83;;;;;;;;;;5046615;28;20092;-65
2021/07/09 08:28:13;;;;;;;2.65;1.80;;;;;;;;;;5031677;28;20049;-65
2021/07/09 08:30:38;;;;;;;2.67;1.55;;;;;;;;;;5034360;28;20023;-65
2021/07/09 08:33:03;;;;;;;3.03;1.80;;;;;;;;;;5041663;28;20105;-64
2021/07/09 08:35:28;;;;;;;2.87;1.80;;;;;;;;;;5040431;28;20693;-64
2021/07/09 08:37:53;;;;;;;1.95;1.50;;;;;;;;;;5037152;28;20391;-64
2021/07/09 08:40:19;;;;;;;3.50;1.60;;;;;;;;;;5037491;28;20017;-65
2021/07/09 08:42:44;;;;;;;2.40;1.55;;;;;;;;;;5049931;28;20049;-64
2021/07/09 08:45:09;;;;;;;2.63;1.45;;;;;;;;;;5037379;28;20100;-64
2021/07/09 08:47:35;;;;;;;2.25;1.75;;;;;;;;;;5045252;28;20017;-65
2021/07/09 08:50:01;;;;;;;1.58;1.35;;;;;;;;;;5050472;28;20017;-68
2021/07/09 08:52:26;;;;;;;2.80;1.52;;;;;;;;;;5050499;28;20040;-65
2021/07/09 08:54:51;;;;;;;2.42;1.77;;;;;;;;;;5050519;28;20040;-65
2021/07/09 08:57:16;;;;;;;2.40;1.73;;;;;;;;;;5036950;28;20063;-65
2021/07/09 08:59:42;;;;;;;4.32;1.58;;;;;;;;;;5037375;28;20474;-65
2021/07/09 09:02:07;;;;;;;1.92;1.60;;;;;;;;;;5046124;28;20039;-65
2021/07/09 09:04:33;;;;;;;2.90;1.70;;;;;;;;;;5045637;28;20409;-64
2021/07/09 09:07:03;;;;;;;2.28;1.42;;;;;;;;;;5030458;28;20044;-65
2021/07/09 09:09:29;;;;;;;2.58;1.40;;;;;;;;;;5035066;28;20029;-65
2021/07/09 09:12:10;;;;;;;4.53;2.08;;;;;;;;;;5038900;28;20028;-66
2021/07/09 09:14:37;;;;;;;1.50;1.30;;;;;;;;;;5043370;28;20029;-66
2021/07/09 09:17:22;;;;;;;2.20;1.50;;;;;;;;;;5043833;28;20033;-65
2021/07/09 09:20:06;;;;;;;3.40;1.38;;;;;;;;;;5031697;28;20020;-66
2021/07/09 09:22:32;;;;;;;1.77;1.30;;;;;;;;;;5036562;28;20107;-64
2021/07/09 09:25:00;;;;;;;1.80;1.38;;;;;;;;;;5045276;28;20112;-65
2021/07/09 09:27:25;;;;;;;3.28;1.45;;;;;;;;;;5044110;28;20037;-66
2021/07/09 09:29:50;;;;;;;1.73;1.20;;;;;;;;;;5039238;28;20587;-65
2021/07/09 09:32:15;;;;;;;2.03;1.40;;;;;;;;;;5033100;28;20036;-65
2021/07/09 09:34:42;;;;;;;2.33;1.47;;;;;;;;;;5049454;28;20278;-66
2021/07/09 09:37:07;;;;;;;2.05;1.42;;;;;;;;;;5049175;28;20296;-66
2021/07/09 09:39:33;;;;;;;1.38;1.13;;;;;;;;;;5036608;28;20024;-65
2021/07/09 09:42:18;;;;;;;1.60;1.30;;;;;;;;;;5034782;28;20119;-65
2021/07/09 09:44:47;;;;;;;1.65;1.10;;;;;;;;;;5046437;28;20078;-64
2021/07/09 09:47:13;;;;;;;2.17;1.40;;;;;;;;;;5049352;28;20016;-64
2021/07/09 09:49:38;;;;;;;2.10;1.67;;;;;;;;;;5032676;28;20616;-66
2021/07/09 09:52:03;;;;;;;3.13;1.90;;;;;;;;;;5033290;28;20028;-65
2021/07/09 09:54:35;;;;;;;3.70;1.90;;;;;;;;;;5046145;28;20461;-65
2021/07/09 09:57:00;;;;;;;2.75;1.88;;;;;;;;;;5032024;28;20033;-65
2021/07/09 09:59:25;;;;;;;3.17;1.90;;;;;;;;;;5046152;28;20139;-66
2021/07/09 10:01:52;;;;;;;3.80;2.25;;;;;;;;;;5029240;28;20033;-65
2021/07/09 10:04:17;;;;;;;3.33;2.28;;;;;;;;;;5035840;28;20017;-66
2021/07/09 10:06:43;;;;;;;3.78;2.38;;;;;;;;;;5029151;28;20033;-65
2021/07/09 10:09:08;;;;;;;2.72;1.90;;;;;;;;;;5029204;28;20024;-65
2021/07/09 10:11:33;;;;;;;3.47;2.13;;;;;;;;;;5037012;28;20020;-66
2021/07/09 10:13:59;;;;;;;4.35;2.20;;;;;;;;;;5039582;28;20029;-65
2021/07/09 10:16:24;;;;;;;4.68;2.20;;;;;;;;;;5042819;28;20020;-65
2021/07/09 10:18:54;;;;;;;4.28;2.30;;;;;;;;;;5035690;28;20037;-66
2021/07/09 10:21:19;;;;;;;2.95;2.17;;;;;;;;;;5043124;28;20048;-66
2021/07/09 10:23:46;;;;;;;2.63;2.10;;;;;;;;;;5045849;28;20484;-65
2021/07/09 10:26:11;;;;;;;2.80;2.00;;;;;;;;;;5027604;28;20029;-65
2021/07/09 10:28:36;;;;;;;3.15;2.30;;;;;;;;;;5048259;28;20029;-65
2021/07/09 10:31:01;;;;;;;2.88;2.25;;;;;;;;;;5029865;28;20026;-65
2021/07/09 10:33:36;;;;;;;4.97;2.38;;;;;;;;;;5042134;28;20113;-65
2021/07/09 10:36:05;;;;;;;3.10;2.28;;;;;;;;;;5035846;28;20055;-66
2021/07/09 10:38:40;;;;;;;4.90;2.40;;;;;;;;;;5022737;28;20033;-66
2021/07/09 10:41:13;;;;;;;5.32;3.05;;;;;;;;;;5035432;28;20668;-65
2021/07/09 10:43:38;;;;;;;5.68;3.50;;;;;;;;;;5043360;28;20115;-66
2021/07/09 10:46:09;;;;;;;5.55;3.20;;;;;;;;;;5045240;28;20449;-65
2021/07/09 10:48:35;;;;;;;4.70;3.65;;;;;;;;;;5042224;28;20024;-66
2021/07/09 10:51:01;;;;;;;6.20;3.60;;;;;;;;;;5034214;28;20068;-66
2021/07/09 10:53:26;;;;;;;7.38;3.60;;;;;;;;;;5029255;28;20041;-65
2021/07/09 10:56:07;;;;;;;8.18;3.88;;;;;;;;;;5030112;28;20521;-65
2021/07/09 10:58:43;;;;;;;5.63;3.40;;;;;;;;;;5043883;28;20511;-66
2021/07/09 11:01:16;;;;;;;5.88;3.90;;;;;;;;;;5032576;28;20033;-65
2021/07/09 11:03:42;;;;;;;5.57;4.20;;;;;;;;;;5028938;28;20049;-66
2021/07/09 11:06:07;;;;;;;5.90;4.00;;;;;;;;;;5037637;28;20107;-66
2021/07/09 11:08:33;;;;;;;6.70;4.05;;;;;;;;;;5037149;28;20115;-66
2021/07/09 11:10:59;;;;;;;6.65;4.05;;;;;;;;;;5045310;28;20024;-66
2021/07/09 11:13:42;;;;;;;5.75;4.15;;;;;;;;;;5035599;28;20552;-66
2021/07/09 11:16:20;;;;;;;5.85;3.80;;;;;;;;;;5037922;28;20071;-66
2021/07/09 11:18:48;;;;;;;8.13;4.20;;;;;;;;;;5035782;28;20041;-65
2021/07/09 11:21:15;;;;;;;4.97;3.83;;;;;;;;;;5029276;28;20060;-66
2021/07/09 11:23:49;;;;;;;6.43;4.20;;;;;;;;;;5044306;28;20025;-66
2021/07/09 11:26:14;;;;;;;5.32;3.97;;;;;;;;;;5043242;28;20027;-65
2021/07/09 11:28:39;;;;;;;4.90;3.63;;;;;;;;;;5052038;28;20524;-66
2021/07/09 11:31:05;;;;;;;6.32;4.20;;;;;;;;;;5032825;28;20513;-66
2021/07/09 11:33:30;;;;;;;5.07;3.75;;;;;;;;;;5032508;28;20053;-66
2021/07/09 11:35:55;;;;;;;7.05;4.47;;;;;;;;;;5039060;28;20028;-65
2021/07/09 11:38:20;;;;;;;6.60;4.67;;;;;;;;;;5042881;28;20318;-67
2021/07/09 11:40:46;;;;;;;6.97;4.90;;;;;;;;;;5043656;28;20303;-66
2021/07/09 11:43:11;;;;;;;8.13;4.72;;;;;;;;;;5031704;28;20373;-64
2021/07/09 11:45:37;;;;;;;8.48;5.32;;;;;;;;;;5046920;28;20024;-65
2021/07/09 11:48:02;;;;;;;8.73;4.63;;;;;;;;;;5038680;28;20082;-66
2021/07/09 11:50:27;;;;;;;13.10;5.00;;;;;;;;;;5051415;28;20302;-65
2021/07/09 11:52:54;;;;;;;9.00;4.60;;;;;;;;;;5044943;28;20065;-67
2021/07/09 11:55:28;;;;;;;6.18;4.70;;;;;;;;;;5044016;28;20115;-65
2021/07/09 11:57:54;;;;;;;7.85;5.30;;;;;;;;;;5033743;28;20538;-65
2021/07/09 12:00:20;;;;;;;8.98;4.88;;;;;;;;;;5041151;28;20017;-66
2021/07/09 12:02:46;;;;;;;10.38;5.55;;;;;;;;;;5044786;28;20117;-65
2021/07/09 12:05:13;;;;;;;7.95;5.35;;;;;;;;;;5049509;28;20021;-65
2021/07/09 12:07:41;;;;;;;7.63;5.32;;;;;;;;;;5050564;28;20052;-66
2021/07/09 12:10:14;;;;;;;9.32;5.93;;;;;;;;;;5041459;28;20033;-66
2021/07/09 12:12:43;;;;;;;9.07;5.75;;;;;;;;;;5036781;28;20116;-66
2021/07/09 12:15:27;;;;;;;10.07;5.80;;;;;;;;;;5047969;28;20431;-65
2021/07/09 12:17:52;;;;;;;8.15;5.32;;;;;;;;;;5036675;28;20082;-66
2021/07/09 12:20:19;;;;;;;11.90;5.50;;;;;;;;;;5030159;28;20017;-64
2021/07/09 12:22:52;;;;;;;6.22;4.55;;;;;;;;;;5035888;28;20107;-64
2021/07/09 12:25:18;;;;;;;5.78;4.30;;;;;;;;;;5036197;28;20088;-64
2021/07/09 12:27:43;;;;;;;7.38;4.05;;;;;;;;;;5022900;28;20021;-65
2021/07/09 12:30:10;;;;;;;8.55;3.80;;;;;;;;;;5018850;28;20119;-66
2021/07/09 12:32:56;;;;;;;4.18;3.33;;;;;;;;;;5016550;28;20544;-66
2021/07/09 12:35:22;;;;;;;5.30;3.95;;;;;;;;;;5020985;28;20037;-65
2021/07/09 12:37:55;;;;;;;5.22;3.42;;;;;;;;;;5017522;28;20059;-65
2021/07/09 12:40:21;;;;;;;9.13;4.07;;;;;;;;;;5033143;28;20024;-65
2021/07/09 12:42:48;;;;;;;4.63;3.28;;;;;;;;;;5031336;28;20083;-65
2021/07/09 12:45:13;;;;;;;6.93;3.70;;;;;;;;;;5027650;28;20029;-64
2021/07/09 12:47:52;;;;;;;5.40;3.40;;;;;;;;;;5024296;28;20030;-65
2021/07/09 12:50:18;;;;;;;8.50;3.60;;;;;;;;;;5021201;28;20022;-65
2021/07/09 12:52:44;;;;;;;8.45;3.40;;;;;;;;;;5031886;28;20028;-65
2021/07/09 12:55:27;;;;;;;6.72;3.53;;;;;;;;;;5026622;28;20477;-64
2021/07/09 12:57:53;;;;;;;4.97;3.42;;;;;;;;;;5035920;28;20511;-65
2021/07/09 13:00:18;;;;;;;7.22;4.53;;;;;;;;;;5033571;28;20028;-65
2021/07/09 13:02:43;;;;;;;6.40;4.07;;;;;;;;;;5027350;28;20040;-65
2021/07/09 13:05:12;;;;;;;7.20;4.47;;;;;;;;;;5022972;28;20018;-65
2021/07/09 13:07:38;;;;;;;6.93;4.63;;;;;;;;;;5028615;28;20026;-66
2021/07/09 13:10:03;;;;;;;7.57;4.53;;;;;;;;;;5026469;28;20099;-66
2021/07/09 13:12:30;;;;;;;5.88;4.28;;;;;;;;;;5028254;28;20025;-64
2021/07/09 13:14:58;;;;;;;4.38;3.22;;;;;;;;;;5020984;28;20472;-65
2021/07/09 13:17:23;;;;;;;6.25;3.45;;;;;;;;;;5026747;28;20147;-62
2021/07/09 13:19:58;;;;;;;5.03;3.17;;;;;;;;;;5031047;28;20543;-62
2021/07/09 13:22:34;;;;;;;6.03;3.83;;;;;;;;;;5026841;28;20159;-61
2021/07/09 13:25:18;;;;;;;5.15;3.40;;;;;;;;;;5026357;28;20099;-62
2021/07/09 13:27:57;;;;;;;4.65;3.58;;;;;;;;;;5036332;28;20025;-62
2021/07/09 13:30:22;;;;;;;3.78;2.58;;;;;;;;;;5031864;28;20026;-62
2021/07/09 13:32:47;;;;;;;2.90;2.08;;;;;;;;;;5033851;28;20028;-62
2021/07/09 13:35:14;;;;;;;3.77;2.60;;;;;;;;;;5027091;28;20021;-62
2021/07/09 13:37:40;;;;;;;4.45;2.20;;;;;;;;;;5026178;28;20292;-62
2021/07/09 13:40:06;;;;;;;2.83;2.10;;;;;;;;;;5037667;28;20030;-62
2021/07/09 13:42:31;;;;;;;3.85;2.00;;;;;;;;;;5034684;28;20061;-61
2021/07/09 13:44:57;;;;;;;3.38;2.17;;;;;;;;;;5043065;28;20100;-62
2021/07/09 13:47:22;;;;;;;6.85;2.50;;;;;;;;;;5042857;28;20358;-63
2021/07/09 13:49:48;;;;;;;3.17;2.20;;;;;;;;;;5028825;28;20132;-61
2021/07/09 13:52:13;;;;;;;3.30;1.70;;;;;;;;;;5034862;28;20029;-63
2021/07/09 13:54:38;;;;;;;4.85;2.03;;;;;;;;;;5030330;28;20389;-62
2021/07/09 13:57:03;;;;;;;3.10;1.80;;;;;;;;;;5031322;28;20060;-62
2021/07/09 13:59:28;;;;;;;3.67;1.90;;;;;;;;;;5035859;28;20278;-61
2021/07/09 14:01:54;;;;;;;3.53;2.20;;;;;;;;;;5031811;28;20032;-62
2021/07/09 14:04:19;;;;;;;4.95;3.28;;;;;;;;;;5026354;28;20033;-62
2021/07/09 14:06:44;;;;;;;4.43;2.97;;;;;;;;;;5024920;28;20022;-63
2021/07/09 14:09:09;;;;;;;4.88;2.80;;;;;;;;;;5029721;28;20022;-63
2021/07/09 14:11:34;;;;;;;5.97;2.80;;;;;;;;;;5031668;28;20477;-61
2021/07/09 14:14:00;;;;;;;4.72;2.60;;;;;;;;;;5025576;28;20308;-62
2021/07/09 14:16:25;;;;;;;3.67;2.57;;;;;;;;;;5024776;28;20114;-62
2021/07/09 14:18:50;;;;;;;3.97;2.53;;;;;;;;;;5032908;28;20616;-62
2021/07/09 14:21:16;;;;;;;3.97;2.33;;;;;;;;;;5030220;28;20108;-62
2021/07/09 14:23:41;;;;;;;5.93;2.63;;;;;;;;;;5027728;28;20287;-61
2021/07/09 14:26:06;;;;;;;4.38;2.20;;;;;;;;;;5028999;28;20025;-61
2021/07/09 14:28:31;;;;;;;3.72;2.60;;;;;;;;;;5029718;28;20427;-64
2021/07/09 14:30:56;;;;;;;3.63;2.50;;;;;;;;;;5033544;28;20186;-64
2021/07/09 14:33:22;;;;;;;4.37;2.90;;;;;;;;;;5036209;28;20025;-64
2021/07/09 14:35:48;;;;;;;3.30;2.33;;;;;;;;;;5036042;28;20299;-64
2021/07/09 14:38:13;;;;;;;8.50;3.15;;;;;;;;;;5037204;28;20172;-65